createdAt,value
2018-06-09T00:01:30.611Z,7.73
2018-06-09T00:03:59.631Z,7.97
2018-06-09T00:06:28.635Z,7.83
2018-06-09T00:08:57.605Z,8.03
2018-06-09T00:11:26.613Z,7.97
2018-06-09T00:13:55.728Z,8.90
2018-06-09T00:16:24.691Z,10.10
2018-06-09T00:18:53.757Z,8.63
2018-06-09T00:21:22.769Z,8.23
2018-06-09T00:23:51.750Z,9.17
2018-06-09T00:26:20.816Z,8.97
2018-06-09T00:28:49.844Z,9.00
2018-06-09T00:31:18.801Z,8.80
2018-06-09T00:33:47.810Z,9.10
2018-06-09T00:36:16.775Z,9.33
2018-06-09T00:38:45.755Z,8.87
2018-06-09T00:41:14.758Z,8.63
2018-06-09T00:43:43.788Z,9.67
2018-06-09T00:46:12.865Z,8.60
2018-06-09T00:48:41.897Z,9.17
2018-06-09T00:51:10.874Z,9.53
2018-06-09T00:53:40.169Z,9.70
2018-06-09T00:56:46.888Z,9.00
2018-06-09T00:59:15.888Z,8.73
2018-06-09T01:01:44.860Z,9.50
2018-06-09T01:04:13.870Z,8.37
2018-06-09T01:06:42.833Z,8.57
2018-06-09T01:09:12.323Z,8.23
2018-06-09T01:11:41.308Z,8.47
2018-06-09T01:14:10.655Z,9.73
2018-06-09T01:16:39.750Z,9.13
2018-06-09T01:19:09.312Z,8.87
2018-06-09T01:21:38.285Z,9.03
2018-06-09T01:24:07.418Z,8.90
2018-06-09T01:26:36.439Z,9.30
2018-06-09T01:29:05.984Z,10.17
2018-06-09T01:31:34.976Z,9.27
2018-06-09T01:34:04.037Z,9.37
2018-06-09T01:36:33.128Z,9.20
2018-06-09T01:39:02.068Z,10.67
2018-06-09T01:41:31.091Z,9.10
2018-06-09T01:44:00.145Z,9.27
2018-06-09T01:46:29.214Z,8.80
2018-06-09T01:48:58.209Z,10.27
2018-06-09T01:51:27.221Z,9.37
2018-06-09T01:53:56.246Z,9.20
2018-06-09T01:56:25.304Z,9.20
2018-06-09T01:58:54.380Z,10.17
2018-06-09T02:01:23.824Z,9.00
2018-06-09T02:03:52.849Z,9.60
2018-06-09T02:06:22.018Z,10.00
2018-06-09T02:08:51.144Z,8.90
2018-06-09T02:11:20.176Z,10.60
2018-06-09T02:13:49.245Z,9.57
2018-06-09T02:16:18.246Z,10.30
2018-06-09T02:18:48.150Z,9.70
2018-06-09T02:21:17.204Z,9.80
2018-06-09T02:23:46.231Z,9.63
2018-06-09T02:26:15.250Z,9.43
2018-06-09T02:28:44.271Z,10.07
2018-06-09T02:31:13.387Z,9.80
2018-06-09T02:33:42.650Z,8.90
2018-06-09T02:36:11.953Z,9.80
2018-06-09T02:38:41.019Z,10.27
2018-06-09T02:41:10.023Z,10.33
2018-06-09T02:43:39.107Z,9.93
2018-06-09T02:46:08.139Z,9.90
2018-06-09T02:48:37.120Z,9.27
2018-06-09T02:51:06.488Z,9.57
2018-06-09T02:53:35.548Z,9.37
2018-06-09T02:56:05.270Z,9.87
2018-06-09T02:58:34.225Z,9.47
2018-06-09T03:01:03.276Z,11.40
2018-06-09T03:03:32.259Z,9.00
2018-06-09T03:06:01.269Z,10.13
2018-06-09T03:08:30.415Z,10.83
2018-06-09T03:10:59.464Z,9.10
2018-06-09T03:13:28.637Z,9.20
2018-06-09T03:15:57.679Z,10.27
2018-06-09T03:18:26.801Z,9.63
2018-06-09T03:20:55.918Z,10.93
2018-06-09T03:23:24.884Z,10.50
2018-06-09T03:25:53.927Z,10.07
2018-06-09T03:28:22.912Z,9.60
2018-06-09T03:30:52.397Z,10.53
2018-06-09T03:33:21.432Z,9.47
2018-06-09T03:35:50.459Z,10.90
2018-06-09T03:38:19.445Z,9.57
2018-06-09T03:40:48.419Z,11.73
2018-06-09T03:43:17.437Z,10.13
2018-06-09T03:45:46.434Z,11.17
2018-06-09T03:48:15.542Z,11.97
2018-06-09T03:50:44.526Z,11.70
2018-06-09T03:53:13.515Z,10.97
2018-06-09T03:55:42.681Z,11.80
2018-06-09T03:58:12.056Z,11.33
2018-06-09T04:00:41.796Z,11.47
2018-06-09T04:03:10.856Z,9.67
2018-06-09T04:05:39.840Z,11.43
2018-06-09T04:08:08.836Z,10.93
2018-06-09T04:10:37.820Z,11.37
2018-06-09T04:13:11.059Z,10.93
2018-06-09T04:15:40.476Z,10.97
2018-06-09T04:18:09.859Z,12.00
2018-06-09T04:20:39.116Z,12.23
2018-06-09T04:23:08.224Z,12.00
2018-06-09T04:25:37.245Z,11.40
2018-06-09T04:28:06.320Z,11.23
2018-06-09T04:30:35.359Z,12.80
2018-06-09T04:33:04.416Z,12.40
2018-06-09T04:35:33.421Z,13.40
2018-06-09T04:38:02.447Z,11.67
2018-06-09T04:40:31.688Z,11.40
2018-06-09T04:43:01.295Z,11.60
2018-06-09T04:45:30.399Z,11.50
2018-06-09T04:47:59.536Z,13.67
2018-06-09T04:50:28.575Z,12.27
2018-06-09T04:52:57.713Z,11.90
2018-06-09T04:55:26.762Z,11.93
2018-06-09T04:57:55.842Z,12.70
2018-06-09T05:00:24.849Z,12.27
2018-06-09T05:02:54.143Z,12.13
2018-06-09T05:05:23.161Z,12.13
2018-06-09T05:07:52.139Z,11.93
2018-06-09T05:10:21.099Z,12.30
2018-06-09T05:12:50.168Z,12.20
2018-06-09T05:15:19.165Z,11.43
2018-06-09T05:17:48.228Z,12.10
2018-06-09T05:20:17.248Z,11.90
2018-06-09T05:22:47.329Z,11.73
2018-06-09T05:25:17.026Z,11.40
2018-06-09T05:27:46.079Z,11.17
2018-06-09T05:30:15.065Z,10.83
2018-06-09T05:32:44.201Z,10.67
2018-06-09T05:35:13.294Z,12.07
2018-06-09T05:37:42.304Z,11.10
2018-06-09T05:40:11.317Z,11.80
2018-06-09T05:42:40.398Z,9.60
2018-06-09T05:45:09.427Z,10.30
2018-06-09T05:47:38.562Z,10.80
2018-06-09T05:50:07.634Z,10.23
2018-06-09T05:52:36.678Z,11.27
2018-06-09T05:55:10.158Z,10.47
2018-06-09T05:57:39.267Z,10.20
2018-06-09T06:00:08.252Z,11.43
2018-06-09T06:02:37.321Z,11.63
2018-06-09T06:05:06.521Z,10.63
2018-06-09T06:07:35.536Z,11.07
2018-06-09T06:10:04.544Z,10.77
2018-06-09T06:12:33.579Z,12.10
2018-06-09T06:15:02.638Z,10.07
2018-06-09T06:17:31.643Z,11.07
2018-06-09T06:20:00.861Z,10.77
2018-06-09T06:22:30.204Z,11.37
2018-06-09T06:24:59.755Z,10.93
2018-06-09T06:27:28.746Z,10.73
2018-06-09T06:29:57.864Z,11.07
2018-06-09T06:32:27.287Z,11.27
2018-06-09T06:34:56.267Z,10.70
2018-06-09T06:37:25.219Z,10.03
2018-06-09T06:39:54.208Z,11.50
2018-06-09T06:42:23.199Z,11.47
2018-06-09T06:44:52.201Z,9.97
2018-06-09T06:47:21.226Z,10.63
2018-06-09T06:49:50.221Z,10.37
2018-06-09T06:52:19.527Z,10.30
2018-06-09T06:54:48.556Z,10.33
2018-06-09T06:57:17.561Z,10.83
2018-06-09T06:59:46.627Z,10.50
2018-06-09T07:02:15.675Z,9.30
2018-06-09T07:04:44.775Z,9.90
2018-06-09T07:07:13.769Z,9.63
2018-06-09T07:09:42.799Z,8.98
2018-06-09T07:12:11.796Z,9.88
2018-06-09T07:14:41.448Z,9.80
2018-06-09T07:17:10.479Z,10.20
2018-06-09T07:19:39.507Z,9.65
2018-06-09T07:22:08.623Z,8.93
2018-06-09T07:24:37.544Z,9.03
2018-06-09T07:27:06.574Z,9.38
2018-06-09T07:29:35.557Z,9.68
2018-06-09T07:32:04.584Z,9.53
2018-06-09T07:34:33.549Z,9.55
2018-06-09T07:37:02.704Z,8.88
2018-06-09T07:39:31.688Z,9.23
2018-06-09T07:42:00.729Z,9.45
2018-06-09T07:44:29.730Z,10.85
2018-06-09T07:46:58.758Z,8.93
2018-06-09T07:49:27.757Z,9.85
2018-06-09T07:51:56.714Z,9.53
2018-06-09T07:54:25.688Z,8.55
2018-06-09T07:56:54.698Z,9.05
2018-06-09T07:59:23.691Z,10.18
2018-06-09T08:01:52.708Z,10.72
2018-06-09T08:04:21.850Z,10.30
2018-06-09T08:06:50.931Z,9.73
2018-06-09T08:09:19.899Z,9.33
2018-06-09T08:11:49.046Z,9.88
2018-06-09T08:14:18.347Z,8.88
2018-06-09T08:16:47.560Z,9.20
2018-06-09T08:19:16.568Z,9.03
2018-06-09T08:21:45.528Z,8.60
2018-06-09T08:24:15.301Z,7.53
2018-06-09T08:26:44.312Z,8.73
2018-06-09T08:29:13.419Z,9.18
2018-06-09T08:31:42.397Z,8.08
2018-06-09T08:34:11.386Z,9.08
2018-06-09T08:36:40.383Z,9.55
2018-06-09T08:39:09.441Z,7.70
2018-06-09T08:41:38.457Z,8.43
2018-06-09T08:44:07.468Z,8.70
2018-06-09T08:46:36.468Z,9.08
2018-06-09T08:49:05.490Z,8.58
2018-06-09T08:51:34.506Z,9.28
2018-06-09T08:54:03.549Z,9.38
2018-06-09T08:56:32.532Z,9.00
2018-06-09T08:59:01.554Z,7.92
2018-06-09T09:01:30.876Z,9.85
2018-06-09T09:03:59.875Z,9.83
2018-06-09T09:06:28.835Z,9.50
2018-06-09T09:08:57.911Z,9.18
2018-06-09T09:11:26.864Z,8.30
2018-06-09T09:13:55.837Z,9.85
2018-06-09T09:16:24.861Z,9.55
2018-06-09T09:18:53.857Z,9.65
2018-06-09T09:21:22.863Z,10.10
2018-06-09T09:23:51.986Z,9.78
2018-06-09T09:26:21.018Z,8.60
2018-06-09T09:28:50.001Z,9.93
2018-06-09T09:31:19.101Z,9.78
2018-06-09T09:33:49.784Z,10.10
2018-06-09T09:36:18.831Z,9.85
2018-06-09T09:38:47.887Z,8.75
2018-06-09T09:41:16.977Z,10.18
2018-06-09T09:43:46.667Z,9.53
2018-06-09T09:46:15.662Z,9.33
2018-06-09T09:48:45.604Z,8.78
2018-06-09T09:51:14.572Z,8.33
2018-06-09T09:53:43.600Z,9.25
2018-06-09T09:56:12.613Z,9.45
2018-06-09T09:58:41.591Z,8.38
2018-06-09T10:01:10.662Z,8.50
2018-06-09T10:03:39.776Z,9.00
2018-06-09T10:06:08.782Z,9.65
2018-06-09T10:08:37.774Z,9.63
2018-06-09T10:11:07.167Z,10.25
2018-06-09T10:13:36.183Z,10.20
2018-06-09T10:16:05.333Z,9.90
2018-06-09T10:18:34.429Z,10.18
2018-06-09T10:21:03.433Z,9.80
2018-06-09T10:23:32.413Z,9.93
2018-06-09T10:26:01.401Z,9.13
2018-06-09T10:28:30.430Z,8.55
2018-06-09T10:30:59.443Z,9.00
2018-06-09T10:33:28.423Z,8.03
2018-06-09T10:35:57.442Z,9.50
2018-06-09T10:38:26.399Z,8.75
2018-06-09T10:40:55.413Z,14.58
2018-06-09T10:43:24.376Z,9.20
2018-06-09T10:45:53.423Z,8.73
2018-06-09T10:48:22.470Z,8.30
2018-06-09T10:50:51.456Z,7.78
2018-06-09T10:53:20.478Z,8.20
2018-06-09T10:55:49.505Z,8.28
2018-06-09T10:58:18.504Z,7.95
2018-06-09T11:00:47.515Z,7.03
2018-06-09T11:03:16.504Z,7.05
2018-06-09T11:05:45.501Z,7.87
2018-06-09T11:08:14.550Z,7.75
2018-06-09T11:10:43.514Z,7.33
2018-06-09T11:13:12.543Z,7.55
2018-06-09T11:15:41.594Z,7.33
2018-06-09T11:18:10.593Z,8.33
2018-06-09T11:20:39.626Z,7.95
2018-06-09T11:23:08.609Z,6.97
2018-06-09T11:25:37.687Z,7.90
2018-06-09T11:28:06.730Z,7.83
2018-06-09T11:30:35.801Z,7.47
2018-06-09T11:33:04.848Z,6.95
2018-06-09T11:35:33.950Z,7.45
2018-06-09T11:38:03.086Z,6.03
2018-06-09T11:40:32.188Z,6.60
2018-06-09T11:43:01.370Z,6.97
2018-06-09T11:45:30.343Z,6.17
2018-06-09T11:47:59.419Z,7.28
2018-06-09T11:50:28.399Z,7.05
2018-06-09T11:52:57.449Z,6.67
2018-06-09T11:55:26.548Z,6.92
2018-06-09T11:57:55.606Z,7.17
2018-06-09T12:00:24.684Z,7.85
2018-06-09T12:02:53.796Z,7.53
2018-06-09T12:05:22.797Z,6.78
2018-06-09T12:07:51.794Z,7.03
2018-06-09T12:10:21.075Z,6.70
2018-06-09T12:12:50.095Z,7.28
2018-06-09T12:15:19.102Z,6.85
2018-06-09T12:17:48.118Z,7.03
2018-06-09T12:20:17.098Z,6.75
2018-06-09T12:22:46.088Z,7.10
2018-06-09T12:25:15.198Z,7.55
2018-06-09T12:27:44.159Z,6.97
2018-06-09T12:30:13.203Z,7.40
2018-06-09T12:32:42.192Z,6.83
2018-06-09T12:35:11.170Z,6.85
2018-06-09T12:37:40.243Z,7.67
2018-06-09T12:40:09.257Z,7.28
2018-06-09T12:42:38.267Z,5.90
2018-06-09T12:45:07.297Z,7.78
2018-06-09T12:47:36.324Z,6.47
2018-06-09T12:50:05.368Z,7.25
2018-06-09T12:52:34.365Z,7.53
2018-06-09T12:55:03.417Z,6.58
2018-06-09T12:57:32.440Z,7.22
2018-06-09T13:00:01.416Z,8.03
2018-06-09T13:02:30.398Z,7.17
2018-06-09T13:04:59.440Z,7.67
2018-06-09T13:07:28.426Z,7.55
2018-06-09T13:09:57.463Z,6.37
2018-06-09T13:12:26.439Z,6.75
2018-06-09T13:14:55.471Z,7.55
2018-06-09T13:17:24.450Z,8.20
2018-06-09T13:19:53.450Z,8.05
2018-06-09T13:22:22.433Z,7.90
2018-06-09T13:24:51.459Z,8.05
2018-06-09T13:27:20.407Z,7.65
2018-06-09T13:29:49.388Z,7.80
2018-06-09T13:32:18.342Z,6.67
2018-06-09T13:34:47.318Z,8.10
2018-06-09T13:37:16.431Z,7.20
2018-06-09T13:39:45.436Z,6.90
2018-06-09T13:42:14.410Z,6.97
2018-06-09T13:44:43.418Z,7.10
2018-06-09T13:47:12.494Z,7.50
2018-06-09T13:49:41.458Z,7.58
2018-06-09T13:52:10.479Z,5.97
2018-06-09T13:54:39.496Z,7.67
2018-06-09T13:57:08.465Z,7.08
2018-06-09T13:59:37.463Z,6.85
2018-06-09T14:02:06.501Z,7.35
2018-06-09T14:04:35.501Z,7.22
2018-06-09T14:07:04.545Z,6.60
2018-06-09T14:09:33.532Z,7.28
2018-06-09T14:12:02.547Z,6.72
2018-06-09T14:14:31.534Z,6.97
2018-06-09T14:17:00.562Z,7.30
2018-06-09T14:19:29.655Z,6.90
2018-06-09T14:21:58.619Z,6.60
2018-06-09T14:24:27.615Z,6.80
2018-06-09T14:26:56.651Z,7.80
2018-06-09T14:29:25.601Z,6.87
2018-06-09T14:31:54.673Z,6.53
2018-06-09T14:34:23.723Z,7.12
2018-06-09T14:36:52.806Z,6.83
2018-06-09T14:39:21.920Z,6.65
2018-06-09T14:41:50.961Z,7.03
2018-06-09T14:44:20.092Z,7.22
2018-06-09T14:46:49.121Z,6.60
2018-06-09T14:49:18.279Z,6.47
2018-06-09T14:51:47.300Z,6.87
2018-06-09T14:54:16.273Z,6.87
2018-06-09T14:56:45.226Z,7.00
2018-06-09T14:59:18.890Z,6.67
2018-06-09T15:01:48.044Z,6.85
2018-06-09T15:04:17.107Z,7.03
2018-06-09T15:06:46.225Z,7.30
2018-06-09T15:09:15.218Z,7.50
2018-06-09T15:11:44.191Z,6.87
2018-06-09T15:14:13.237Z,7.53
2018-06-09T15:16:42.205Z,6.70
2018-06-09T15:19:11.528Z,7.47
2018-06-09T15:21:40.527Z,7.33
2018-06-09T15:24:10.120Z,7.90
2018-06-09T15:26:39.298Z,6.97
2018-06-09T15:29:08.381Z,7.20
2018-06-09T15:31:37.444Z,9.73
2018-06-09T15:34:06.495Z,8.48
2018-06-09T15:36:35.501Z,9.65
2018-06-09T15:39:07.064Z,8.83
2018-06-09T15:41:36.112Z,9.03
2018-06-09T15:44:05.413Z,7.77
2018-06-09T15:46:34.947Z,8.73
2018-06-09T15:49:03.921Z,7.90
2018-06-09T15:51:32.938Z,7.73
2018-06-09T15:54:01.961Z,8.50
2018-06-09T15:56:31.023Z,7.73
2018-06-09T15:59:00.155Z,7.47
2018-06-09T16:01:29.116Z,6.90
2018-06-09T16:03:58.184Z,7.10
2018-06-09T16:06:27.447Z,6.90
2018-06-09T16:08:56.569Z,8.03
2018-06-09T16:11:25.549Z,7.93
2018-06-09T16:13:54.569Z,8.03
2018-06-09T16:16:23.800Z,8.13
2018-06-09T16:18:52.899Z,8.70
2018-06-09T16:21:22.192Z,7.67
2018-06-09T16:23:51.411Z,7.20
2018-06-09T16:26:20.498Z,7.30
2018-06-09T16:28:49.735Z,6.67
2018-06-09T16:31:18.820Z,7.50
2018-06-09T16:33:47.962Z,5.83
2018-06-09T16:36:18.343Z,6.50
2018-06-09T16:38:47.411Z,6.50
2018-06-09T16:41:16.449Z,5.40
2018-06-09T16:43:45.420Z,6.63
2018-06-09T16:46:14.435Z,6.30
2018-06-09T16:48:43.499Z,6.43
2018-06-09T16:51:12.476Z,5.60
2018-06-09T16:53:41.508Z,6.87
2018-06-09T16:56:10.987Z,6.60
2018-06-09T16:58:39.980Z,5.83
2018-06-09T17:01:09.045Z,6.20
2018-06-09T17:03:38.007Z,6.90
2018-06-09T17:06:07.036Z,6.70
2018-06-09T17:08:36.190Z,6.37
2018-06-09T17:11:05.182Z,6.60
2018-06-09T17:13:34.206Z,5.37
2018-06-09T17:16:03.306Z,6.10
2018-06-09T17:18:32.382Z,6.13
2018-06-09T17:21:01.383Z,5.67
2018-06-09T17:23:30.346Z,5.80
2018-06-09T17:25:59.314Z,5.90
2018-06-09T17:28:28.430Z,6.20
2018-06-09T17:30:57.436Z,6.93
2018-06-09T17:33:26.502Z,5.00
2018-06-09T17:35:55.582Z,5.23
2018-06-09T17:38:24.742Z,4.97
2018-06-09T17:40:53.743Z,5.50
2018-06-09T17:43:22.746Z,6.23
2018-06-09T17:45:51.784Z,4.67
2018-06-09T17:48:20.792Z,5.33
2018-06-09T17:50:49.766Z,5.23
2018-06-09T17:53:18.827Z,5.00
2018-06-09T17:55:47.796Z,4.53
2018-06-09T17:58:16.979Z,6.03
2018-06-09T18:00:47.197Z,7.23
2018-06-09T18:03:16.649Z,5.53
2018-06-09T18:05:45.799Z,5.47
2018-06-09T18:08:14.773Z,5.33
2018-06-09T18:10:44.037Z,4.70
2018-06-09T18:13:13.021Z,4.90
2018-06-09T18:15:42.027Z,5.03
2018-06-09T18:18:11.014Z,4.93
2018-06-09T18:20:40.009Z,5.47
2018-06-09T18:23:08.993Z,6.03
2018-06-09T18:25:37.993Z,4.83
2018-06-09T18:28:07.128Z,5.93
2018-06-09T18:30:36.193Z,4.33
2018-06-09T18:33:05.280Z,5.37
2018-06-09T18:35:34.347Z,4.87
2018-06-09T18:38:03.368Z,6.53
2018-06-09T18:40:32.502Z,5.77
2018-06-09T18:43:01.586Z,5.17
2018-06-09T18:45:30.665Z,5.40
2018-06-09T18:47:59.667Z,4.73
2018-06-09T18:50:28.722Z,6.30
2018-06-09T18:52:57.703Z,6.27
2018-06-09T18:55:26.693Z,5.87
2018-06-09T18:57:55.688Z,5.03
2018-06-09T19:00:24.714Z,6.10
2018-06-09T19:02:53.712Z,5.20
2018-06-09T19:05:22.784Z,5.40
2018-06-09T19:07:51.816Z,6.63
2018-06-09T19:10:20.925Z,5.40
2018-06-09T19:12:49.925Z,7.03
2018-06-09T19:15:19.011Z,26.93
2018-06-09T19:17:48.064Z,6.70
2018-06-09T19:20:17.434Z,5.53
2018-06-09T19:22:46.438Z,25.77
2018-06-09T19:25:15.465Z,9.77
2018-06-09T19:27:44.563Z,8.67
2018-06-09T19:30:13.552Z,5.87
2018-06-09T19:32:42.588Z,6.93
2018-06-09T19:35:11.621Z,6.03
2018-06-09T19:37:40.595Z,6.50
2018-06-09T19:40:09.715Z,5.60
2018-06-09T19:42:38.687Z,5.67
2018-06-09T19:45:07.640Z,6.30
2018-06-09T19:47:36.645Z,6.10
2018-06-09T19:50:05.723Z,6.37
2018-06-09T19:52:34.733Z,6.83
2018-06-09T19:55:03.712Z,7.77
2018-06-09T19:57:32.762Z,8.23
2018-06-09T20:00:01.807Z,6.30
2018-06-09T20:02:30.802Z,6.37
2018-06-09T20:04:59.941Z,6.40
2018-06-09T20:07:29.051Z,6.17
2018-06-09T20:09:58.013Z,5.83
2018-06-09T20:12:27.022Z,7.10
2018-06-09T20:14:56.049Z,6.73
2018-06-09T20:17:25.128Z,6.77
2018-06-09T20:19:54.152Z,5.97
2018-06-09T20:22:23.251Z,6.17
2018-06-09T20:24:52.308Z,6.00
2018-06-09T20:27:21.361Z,6.83
2018-06-09T20:29:50.428Z,6.03
2018-06-09T20:32:19.484Z,6.87
2018-06-09T20:34:48.529Z,5.50
2018-06-09T20:37:17.569Z,5.93
2018-06-09T20:39:46.627Z,7.33
2018-06-09T20:42:15.679Z,7.00
2018-06-09T20:44:44.688Z,6.53
2018-06-09T20:47:13.657Z,7.77
2018-06-09T20:49:42.663Z,7.87
2018-06-09T20:52:11.646Z,7.97
2018-06-09T20:54:40.759Z,6.57
2018-06-09T20:57:09.739Z,6.73
2018-06-09T20:59:38.724Z,7.23
2018-06-09T21:02:07.776Z,6.00
2018-06-09T21:04:36.764Z,7.37
2018-06-09T21:07:05.790Z,7.93
2018-06-09T21:09:34.788Z,7.00
2018-06-09T21:12:03.808Z,8.27
2018-06-09T21:14:32.883Z,7.17
2018-06-09T21:17:01.886Z,7.03
2018-06-09T21:19:30.940Z,8.23
2018-06-09T21:21:59.962Z,7.10
2018-06-09T21:24:29.030Z,8.57
2018-06-09T21:27:03.569Z,7.90
2018-06-09T21:29:38.639Z,10.83
2018-06-09T21:32:09.134Z,8.90
2018-06-09T21:34:54.874Z,12.03
2018-06-09T21:37:29.468Z,9.90
2018-06-09T21:40:01.592Z,9.47
2018-06-09T21:42:35.760Z,8.37
2018-06-09T21:45:09.479Z,12.17
2018-06-09T21:47:38.480Z,13.07
2018-06-09T21:50:07.480Z,8.63
2018-06-09T21:52:36.525Z,8.57
2018-06-09T21:55:05.528Z,8.03
2018-06-09T21:57:34.615Z,8.83
2018-06-09T22:00:03.783Z,8.20
2018-06-09T22:02:32.779Z,9.00
2018-06-09T22:05:01.902Z,8.43
2018-06-09T22:07:30.901Z,7.70
2018-06-09T22:09:59.931Z,8.90
2018-06-09T22:12:28.986Z,7.47
2018-06-09T22:14:57.922Z,7.37
2018-06-09T22:17:26.941Z,7.77
2018-06-09T22:19:55.957Z,6.90
2018-06-09T22:22:24.946Z,7.83
2018-06-09T22:24:53.917Z,8.33
2018-06-09T22:27:22.871Z,7.40
2018-06-09T22:29:51.832Z,8.20
2018-06-09T22:32:20.813Z,7.87
2018-06-09T22:34:49.889Z,7.07
2018-06-09T22:37:18.930Z,7.20
2018-06-09T22:39:47.955Z,8.00
2018-06-09T22:42:16.987Z,8.23
2018-06-09T22:44:45.976Z,8.40
2018-06-09T22:47:14.936Z,8.37
2018-06-09T22:49:43.921Z,6.90
2018-06-09T22:52:12.968Z,6.93
2018-06-09T22:54:41.997Z,7.43
2018-06-09T22:57:10.996Z,7.63
2018-06-09T22:59:39.968Z,8.37
2018-06-09T23:02:09.011Z,7.67
2018-06-09T23:04:38.037Z,7.57
2018-06-09T23:07:07.045Z,9.93
2018-06-09T23:09:36.033Z,9.70
2018-06-09T23:12:05.202Z,8.80
2018-06-09T23:14:34.227Z,8.60
2018-06-09T23:17:03.316Z,8.60
2018-06-09T23:19:32.385Z,9.53
2018-06-09T23:22:01.383Z,7.73
2018-06-09T23:24:30.340Z,9.67
2018-06-09T23:26:59.312Z,8.90
2018-06-09T23:29:28.371Z,8.60
2018-06-09T23:31:57.345Z,9.30
2018-06-09T23:34:26.430Z,8.37
2018-06-09T23:36:55.597Z,7.80
2018-06-09T23:39:24.571Z,11.00
2018-06-09T23:41:53.605Z,9.03
2018-06-09T23:44:22.627Z,9.63
2018-06-09T23:46:51.645Z,9.47
2018-06-09T23:49:20.628Z,7.93
2018-06-09T23:51:49.601Z,9.23
2018-06-09T23:54:18.623Z,9.27
2018-06-09T23:56:47.574Z,9.30
2018-06-09T23:59:16.551Z,9.43
